createdAt,value
2023-03-06T00:00:21.266Z,58.18
2023-03-06T00:03:12.399Z,60.11
2023-03-06T00:05:43.669Z,64.59
2023-03-06T00:08:14.476Z,66.30
2023-03-06T00:10:46.104Z,63.31
2023-03-06T00:13:19.254Z,60.40
2023-03-06T00:15:48.683Z,58.90
2023-03-06T00:18:19.719Z,60.49
2023-03-06T00:20:50.301Z,67.02
2023-03-06T00:23:21.432Z,67.88
2023-03-06T00:25:52.078Z,65.58
2023-03-06T00:28:23.789Z,64.39
2023-03-06T00:30:54.768Z,62.27
2023-03-06T00:33:25.980Z,62.14
2023-03-06T00:35:57.754Z,61.00
2023-03-06T00:38:31.876Z,58.02
2023-03-06T00:41:07.484Z,59.91
2023-03-06T00:43:38.356Z,62.39
2023-03-06T00:46:11.574Z,67.21
2023-03-06T00:48:43.165Z,65.67
2023-03-06T00:51:14.139Z,62.45
2023-03-06T00:53:45.292Z,58.60
2023-03-06T00:56:16.713Z,60.69
2023-03-06T00:58:48.706Z,66.23
2023-03-06T01:01:19.494Z,66.23
2023-03-06T01:03:51.012Z,63.30
2023-03-06T01:06:22.124Z,60.66
2023-03-06T01:08:53.470Z,58.99
2023-03-06T01:11:24.206Z,63.36
2023-03-06T01:13:55.604Z,65.12
2023-03-06T01:16:26.413Z,60.88
2023-03-06T01:18:57.788Z,59.99
2023-03-06T01:21:28.980Z,59.48
2023-03-06T01:24:00.132Z,64.12
2023-03-06T01:26:30.753Z,65.36
2023-03-06T01:29:02.605Z,62.04
2023-03-06T01:31:33.719Z,59.94
2023-03-06T01:34:04.991Z,59.43
2023-03-06T01:36:35.566Z,62.69
2023-03-06T01:39:06.822Z,65.82
2023-03-06T01:41:38.022Z,65.23
2023-03-06T01:44:09.174Z,61.62
2023-03-06T01:46:42.556Z,58.84
2023-03-06T01:49:11.750Z,62.03
2023-03-06T01:51:45.815Z,66.45
2023-03-06T01:54:19.217Z,63.05
2023-03-06T01:56:51.579Z,61.04
2023-03-06T01:59:23.185Z,59.31
2023-03-06T02:01:54.924Z,63.70
2023-03-06T02:04:26.244Z,64.63
2023-03-06T02:06:57.544Z,61.73
2023-03-06T02:09:31.250Z,59.43
2023-03-06T02:12:00.140Z,60.68
2023-03-06T02:14:31.411Z,65.10
2023-03-06T02:17:02.228Z,63.59
2023-03-06T02:19:42.990Z,60.93
2023-03-06T02:22:15.089Z,60.77
2023-03-06T02:24:49.128Z,59.77
2023-03-06T02:27:20.398Z,58.56
2023-03-06T02:29:51.409Z,63.80
2023-03-06T02:32:22.624Z,65.43
2023-03-06T02:34:58.205Z,61.53
2023-03-06T02:37:29.837Z,59.85
2023-03-06T02:40:05.025Z,58.71
2023-03-06T02:42:35.760Z,63.64
2023-03-06T02:45:10.697Z,66.46
2023-03-06T02:47:41.521Z,64.71
2023-03-06T02:50:13.072Z,61.49
2023-03-06T02:52:43.872Z,59.69
2023-03-06T02:55:15.060Z,58.79
2023-03-06T02:57:45.647Z,64.09
2023-03-06T03:00:17.948Z,65.24
2023-03-06T03:02:49.721Z,64.06
2023-03-06T03:05:20.719Z,62.75
2023-03-06T03:07:55.474Z,60.71
2023-03-06T03:10:27.850Z,60.74
2023-03-06T03:12:59.049Z,60.15
2023-03-06T03:15:30.239Z,58.37
2023-03-06T03:18:01.633Z,60.99
2023-03-06T03:20:32.925Z,65.83
2023-03-06T03:23:04.177Z,65.19
2023-03-06T03:25:35.068Z,62.14
2023-03-06T03:28:06.165Z,60.99
2023-03-06T03:30:37.311Z,58.75
2023-03-06T03:33:07.922Z,58.55
2023-03-06T03:35:39.759Z,60.65
2023-03-06T03:38:10.722Z,66.08
2023-03-06T03:40:41.969Z,67.75
2023-03-06T03:43:12.687Z,64.85
2023-03-06T03:45:44.356Z,61.22
2023-03-06T03:48:15.336Z,60.17
2023-03-06T03:50:46.848Z,58.89
2023-03-06T03:53:17.833Z,61.66
2023-03-06T03:55:49.948Z,65.30
2023-03-06T03:58:21.556Z,65.93
2023-03-06T04:00:53.057Z,63.07
2023-03-06T04:03:24.132Z,60.48
2023-03-06T04:05:58.220Z,59.70
2023-03-06T04:08:29.451Z,59.11
2023-03-06T04:11:00.914Z,60.89
2023-03-06T04:13:32.932Z,65.67
2023-03-06T04:16:03.968Z,64.93
2023-03-06T04:18:35.971Z,62.03
2023-03-06T04:21:08.655Z,62.33
2023-03-06T04:23:41.154Z,62.18
2023-03-06T04:26:12.074Z,61.52
2023-03-06T04:28:42.648Z,60.23
2023-03-06T04:31:14.316Z,58.33
2023-03-06T04:33:44.883Z,59.79
2023-03-06T04:36:22.994Z,64.55
2023-03-06T04:38:54.110Z,64.02
2023-03-06T04:41:25.790Z,62.52
2023-03-06T04:43:56.813Z,61.24
2023-03-06T04:46:27.961Z,58.85
2023-03-06T04:48:59.003Z,59.97
2023-03-06T04:51:29.906Z,64.83
2023-03-06T04:54:00.477Z,66.43
2023-03-06T04:56:31.464Z,63.77
2023-03-06T04:59:01.943Z,60.63
2023-03-06T05:01:33.080Z,60.60
2023-03-06T05:04:03.878Z,59.65
2023-03-06T05:06:35.266Z,58.62
2023-03-06T05:09:05.889Z,59.02
2023-03-06T05:11:37.227Z,62.83
2023-03-06T05:14:08.069Z,65.72
2023-03-06T05:16:39.256Z,64.94
2023-03-06T05:19:10.164Z,62.60
2023-03-06T05:21:41.506Z,58.98
2023-03-06T05:24:12.683Z,59.95
2023-03-06T05:26:43.944Z,64.81
2023-03-06T05:29:14.625Z,64.29
2023-03-06T05:31:45.456Z,61.89
2023-03-06T05:34:16.600Z,59.91
2023-03-06T05:36:48.043Z,61.01
2023-03-06T05:39:18.682Z,59.12
2023-03-06T05:41:49.525Z,58.48
2023-03-06T05:44:20.042Z,60.21
2023-03-06T05:46:51.830Z,66.29
2023-03-06T05:49:22.370Z,67.90
2023-03-06T05:51:54.197Z,64.46
2023-03-06T05:54:26.572Z,63.60
2023-03-06T05:56:57.632Z,62.30
2023-03-06T05:59:29.220Z,60.19
2023-03-06T06:02:02.035Z,57.68
2023-03-06T06:04:36.655Z,58.51
2023-03-06T06:07:08.111Z,60.73
2023-03-06T06:09:38.944Z,64.23
2023-03-06T06:12:10.945Z,67.58
2023-03-06T06:14:41.647Z,65.49
2023-03-06T06:17:13.249Z,61.17
2023-03-06T06:19:44.272Z,58.32
2023-03-06T06:22:15.274Z,59.96
2023-03-06T06:24:45.897Z,65.36
2023-03-06T06:27:16.806Z,64.96
2023-03-06T06:29:47.549Z,61.96
2023-03-06T06:32:18.763Z,61.95
2023-03-06T06:34:49.492Z,60.62
2023-03-06T06:37:20.741Z,57.43
2023-03-06T06:39:51.336Z,57.99
2023-03-06T06:42:31.980Z,59.73
2023-03-06T06:45:06.548Z,62.93
2023-03-06T06:47:41.491Z,68.26
2023-03-06T06:50:14.760Z,67.09
2023-03-06T06:52:45.801Z,63.47
2023-03-06T06:55:16.545Z,60.98
2023-03-06T06:57:47.460Z,58.61
2023-03-06T07:00:19.069Z,56.29
2023-03-06T07:02:51.498Z,60.26
2023-03-06T07:05:22.293Z,60.80
2023-03-06T07:07:53.091Z,64.69
2023-03-06T07:10:24.491Z,65.08
2023-03-06T07:12:56.884Z,57.80
2023-03-06T07:15:30.118Z,57.90
2023-03-06T07:18:01.727Z,60.94
2023-03-06T07:20:32.447Z,63.18
2023-03-06T07:23:05.048Z,65.02
2023-03-06T07:25:35.864Z,60.68
2023-03-06T07:28:07.021Z,57.23
2023-03-06T07:30:37.845Z,58.63
2023-03-06T07:33:08.776Z,62.48
2023-03-06T07:35:39.768Z,63.85
2023-03-06T07:38:10.992Z,59.11
2023-03-06T07:40:42.005Z,59.26
2023-03-06T07:43:19.481Z,62.18
2023-03-06T07:46:00.028Z,63.62
2023-03-06T07:48:31.014Z,60.21
2023-03-06T07:51:02.394Z,56.18
2023-03-06T07:53:33.696Z,60.48
2023-03-06T07:56:08.780Z,64.58
2023-03-06T07:58:40.947Z,62.40
2023-03-06T08:01:13.167Z,59.24
2023-03-06T08:03:44.995Z,61.98
2023-03-06T08:06:17.001Z,64.52
2023-03-06T08:08:48.763Z,59.81
2023-03-06T08:11:20.767Z,60.08
2023-03-06T08:13:52.973Z,65.18
2023-03-06T08:16:25.328Z,64.23
2023-03-06T08:18:56.364Z,61.07
2023-03-06T08:21:27.852Z,58.29
2023-03-06T08:23:59.289Z,61.32
2023-03-06T08:26:31.498Z,65.29
2023-03-06T08:29:03.714Z,63.87
2023-03-06T08:31:35.209Z,60.13
2023-03-06T08:34:07.597Z,57.34
2023-03-06T08:36:38.476Z,61.95
2023-03-06T08:39:10.188Z,64.09
2023-03-06T08:41:42.438Z,58.07
2023-03-06T08:44:13.649Z,61.71
2023-03-06T08:46:44.430Z,63.89
2023-03-06T08:49:15.672Z,60.36
2023-03-06T08:51:46.253Z,61.31
2023-03-06T08:54:17.466Z,62.76
2023-03-06T08:56:48.122Z,61.89
2023-03-06T08:59:19.106Z,60.13
2023-03-06T09:01:49.699Z,61.20
2023-03-06T09:04:20.869Z,64.52
2023-03-06T09:06:54.514Z,59.78
2023-03-06T09:09:26.801Z,53.55
2023-03-06T09:11:57.481Z,58.27
2023-03-06T09:14:28.575Z,61.76
2023-03-06T09:16:59.615Z,62.07
2023-03-06T09:19:30.869Z,57.09
2023-03-06T09:22:02.011Z,57.68
2023-03-06T09:24:33.262Z,61.16
2023-03-06T09:27:04.298Z,62.11
2023-03-06T09:29:35.346Z,55.18
2023-03-06T09:32:06.819Z,54.66
2023-03-06T09:34:37.955Z,59.70
2023-03-06T09:37:09.125Z,61.19
2023-03-06T09:39:40.011Z,62.91
2023-03-06T09:42:15.573Z,57.99
2023-03-06T09:44:48.317Z,53.91
2023-03-06T09:47:29.421Z,58.20
2023-03-06T09:50:10.262Z,58.35
2023-03-06T09:52:46.213Z,58.01
2023-03-06T09:55:19.575Z,59.07
2023-03-06T09:57:54.939Z,60.08
2023-03-06T10:00:32.393Z,60.38
2023-03-06T10:03:09.517Z,61.27
2023-03-06T10:05:42.838Z,60.76
2023-03-06T10:08:20.952Z,61.05
2023-03-06T10:10:55.878Z,59.41
2023-03-06T10:13:29.526Z,61.33
2023-03-06T10:16:03.982Z,55.83
2023-03-06T10:18:38.677Z,51.57
2023-03-06T10:21:19.566Z,53.64
2023-03-06T10:23:53.212Z,56.11
2023-03-06T10:26:26.476Z,57.27
2023-03-06T10:29:03.166Z,58.94
2023-03-06T10:31:34.679Z,54.96
2023-03-06T10:34:13.716Z,54.50
2023-03-06T10:36:44.780Z,55.49
2023-03-06T10:39:18.329Z,56.52
2023-03-06T10:41:49.999Z,55.30
2023-03-06T10:44:24.411Z,54.81
2023-03-06T10:46:56.605Z,55.45
2023-03-06T10:49:30.198Z,52.57
2023-03-06T10:52:02.514Z,52.44
2023-03-06T10:54:34.976Z,52.34
2023-03-06T10:57:22.952Z,52.71
2023-03-06T10:59:55.170Z,51.86
2023-03-06T11:02:30.315Z,52.32
2023-03-06T11:05:02.188Z,52.62
2023-03-06T11:07:34.039Z,50.90
2023-03-06T11:10:14.098Z,52.35
2023-03-06T11:12:45.621Z,53.62
2023-03-06T11:15:23.192Z,54.66
2023-03-06T11:17:56.009Z,54.42
2023-03-06T11:20:33.590Z,53.56
2023-03-06T11:23:12.779Z,52.41
2023-03-06T11:25:48.668Z,53.36
2023-03-06T11:28:23.005Z,54.09
2023-03-06T11:30:55.453Z,54.42
2023-03-06T11:33:29.703Z,54.27
2023-03-06T11:36:05.048Z,57.03
2023-03-06T11:38:43.417Z,55.71
2023-03-06T11:41:19.627Z,53.70
2023-03-06T11:43:54.799Z,54.01
2023-03-06T11:46:28.623Z,52.66
2023-03-06T11:49:03.245Z,53.20
2023-03-06T11:51:36.050Z,53.59
2023-03-06T11:54:07.303Z,54.21
2023-03-06T11:56:40.849Z,55.72
2023-03-06T11:59:20.029Z,55.26
2023-03-06T12:01:54.963Z,54.34
2023-03-06T12:04:35.572Z,54.97
2023-03-06T12:07:12.705Z,54.63
2023-03-06T12:09:47.300Z,53.12
2023-03-06T12:15:10.511Z,54.73
2023-03-06T12:17:51.800Z,53.56
2023-03-06T12:20:28.771Z,54.94
2023-03-06T12:23:14.849Z,55.40
2023-03-06T12:25:49.494Z,54.91
2023-03-06T12:28:19.045Z,54.80
2023-03-06T12:31:23.986Z,56.56
2023-03-06T12:34:02.964Z,53.91
2023-03-06T12:36:40.064Z,53.95
2023-03-06T12:39:18.037Z,54.86
2023-03-06T12:41:58.060Z,52.38
2023-03-06T12:44:43.892Z,52.69
2023-03-06T12:47:17.177Z,52.61
2023-03-06T12:49:51.961Z,54.32
2023-03-06T12:52:30.188Z,55.22
2023-03-06T12:55:02.449Z,52.54
2023-03-06T12:57:33.618Z,54.98
2023-03-06T13:00:04.975Z,53.00
2023-03-06T13:02:52.263Z,52.65
2023-03-06T13:05:31.017Z,51.19
2023-03-06T13:08:18.850Z,53.61
2023-03-06T13:11:05.420Z,52.73
2023-03-06T13:13:42.950Z,55.75
2023-03-06T13:16:15.609Z,53.11
2023-03-06T13:18:45.537Z,54.51
2023-03-06T13:21:29.491Z,53.58
2023-03-06T13:24:05.679Z,56.84
2023-03-06T13:27:05.972Z,57.64
2023-03-06T13:30:02.515Z,54.54
2023-03-06T13:32:34.860Z,54.08
2023-03-06T13:35:19.231Z,53.56
2023-03-06T13:37:54.059Z,53.89
2023-03-06T13:40:30.504Z,52.47
2023-03-06T13:43:18.662Z,53.69
2023-03-06T13:45:50.858Z,52.07
2023-03-06T13:48:45.966Z,50.64
2023-03-06T13:51:23.334Z,53.62
2023-03-06T13:54:11.090Z,51.61
2023-03-06T13:56:54.195Z,55.92
2023-03-06T13:59:36.623Z,60.12
2023-03-06T14:02:18.895Z,62.72
2023-03-06T14:04:56.234Z,58.41
2023-03-06T14:07:28.522Z,60.29
2023-03-06T14:10:02.573Z,63.38
2023-03-06T14:12:35.250Z,58.07
2023-03-06T14:15:13.865Z,58.31
2023-03-06T14:17:55.931Z,62.42
2023-03-06T14:20:33.357Z,58.48
2023-03-06T14:23:17.840Z,59.51
2023-03-06T14:25:50.243Z,62.28
2023-03-06T14:28:27.813Z,61.20
2023-03-06T14:31:00.362Z,60.50
2023-03-06T14:33:38.141Z,60.39
2023-03-06T14:36:14.409Z,63.52
2023-03-06T14:38:50.001Z,61.70
2023-03-06T14:41:28.663Z,56.00
2023-03-06T14:44:10.501Z,56.45
2023-03-06T14:46:41.456Z,60.71
2023-03-06T14:49:13.476Z,62.46
2023-03-06T14:51:45.740Z,57.73
2023-03-06T14:54:19.550Z,55.77
2023-03-06T14:56:53.401Z,59.74
2023-03-06T14:59:27.045Z,63.24
2023-03-06T15:02:02.560Z,58.48
2023-03-06T15:04:36.779Z,54.30
2023-03-06T15:07:09.299Z,56.17
2023-03-06T15:09:40.949Z,56.25
2023-03-06T15:12:26.484Z,58.90
2023-03-06T15:14:59.865Z,60.66
2023-03-06T15:17:31.424Z,60.68
2023-03-06T15:20:02.606Z,62.41
2023-03-06T15:22:38.266Z,59.99
2023-03-06T15:25:17.694Z,58.25
2023-03-06T15:27:51.113Z,56.60
2023-03-06T15:30:27.159Z,58.34
2023-03-06T15:33:23.950Z,58.57
2023-03-06T15:35:57.545Z,59.67
2023-03-06T15:38:26.683Z,60.62
2023-03-06T15:40:58.990Z,61.26
2023-03-06T15:43:30.404Z,60.71
2023-03-06T15:46:01.996Z,61.49
2023-03-06T15:48:34.050Z,62.33
2023-03-06T15:51:05.298Z,60.50
2023-03-06T15:53:36.001Z,56.63
2023-03-06T15:56:07.721Z,57.26
2023-03-06T15:58:38.405Z,58.33
2023-03-06T16:01:12.976Z,57.68
2023-03-06T16:03:43.952Z,59.13
2023-03-06T16:06:19.094Z,59.38
2023-03-06T16:08:51.015Z,59.52
2023-03-06T16:11:32.507Z,59.93
2023-03-06T16:14:06.545Z,59.19
2023-03-06T16:16:39.984Z,59.74
2023-03-06T16:19:25.281Z,59.68
2023-03-06T16:21:59.476Z,59.67
2023-03-06T16:24:30.231Z,58.90
2023-03-06T16:27:02.164Z,59.32
2023-03-06T16:29:32.855Z,58.37
2023-03-06T16:32:04.644Z,58.45
2023-03-06T16:34:35.258Z,58.37
2023-03-06T16:37:07.611Z,58.39
2023-03-06T16:39:38.452Z,58.75
2023-03-06T16:42:09.790Z,59.17
2023-03-06T16:44:40.324Z,58.66
2023-03-06T16:47:12.422Z,59.55
2023-03-06T16:49:42.885Z,59.34
2023-03-06T16:52:14.852Z,59.07
2023-03-06T16:54:45.427Z,59.24
2023-03-06T16:57:16.614Z,59.07
2023-03-06T16:59:47.289Z,59.49
2023-03-06T17:02:18.561Z,59.66
2023-03-06T17:04:49.372Z,59.33
2023-03-06T17:07:20.307Z,60.18
2023-03-06T17:09:51.225Z,61.10
2023-03-06T17:12:22.289Z,62.71
2023-03-06T17:14:52.984Z,58.14
2023-03-06T17:17:24.274Z,55.55
2023-03-06T17:19:56.872Z,59.12
2023-03-06T17:22:28.801Z,62.11
2023-03-06T17:25:02.721Z,62.52
2023-03-06T17:27:34.873Z,57.99
2023-03-06T17:30:06.600Z,58.85
2023-03-06T17:32:38.433Z,61.30
2023-03-06T17:35:09.746Z,63.61
2023-03-06T17:37:41.234Z,58.48
2023-03-06T17:40:15.720Z,58.16
2023-03-06T17:42:46.702Z,60.84
2023-03-06T17:45:17.503Z,62.69
2023-03-06T17:47:49.223Z,58.66
2023-03-06T17:50:20.381Z,59.03
2023-03-06T17:52:51.701Z,61.43
2023-03-06T17:55:22.675Z,64.14
2023-03-06T17:57:54.892Z,60.86
2023-03-06T18:00:26.600Z,57.47
2023-03-06T18:02:58.005Z,59.82
2023-03-06T18:05:28.781Z,63.44
2023-03-06T18:07:59.846Z,61.88
2023-03-06T18:10:30.857Z,57.84
2023-03-06T18:13:03.131Z,59.26
2023-03-06T18:15:34.992Z,62.78
2023-03-06T18:18:07.966Z,63.77
2023-03-06T18:20:44.285Z,59.59
2023-03-06T18:23:16.906Z,57.35
2023-03-06T18:25:48.095Z,60.32
2023-03-06T18:28:19.910Z,64.27
2023-03-06T18:30:50.804Z,62.22
2023-03-06T18:33:22.102Z,59.44
2023-03-06T18:35:52.917Z,59.86
2023-03-06T18:38:24.283Z,63.76
2023-03-06T18:40:55.050Z,63.11
2023-03-06T18:43:26.209Z,58.94
2023-03-06T18:45:57.890Z,58.11
2023-03-06T18:48:29.266Z,61.53
2023-03-06T18:51:04.338Z,63.83
2023-03-06T18:53:35.541Z,64.16
2023-03-06T18:56:06.624Z,60.53
2023-03-06T18:58:38.127Z,57.59
2023-03-06T19:01:09.150Z,62.12
2023-03-06T19:03:41.133Z,65.75
2023-03-06T19:06:13.220Z,62.50
2023-03-06T19:08:44.577Z,57.49
2023-03-06T19:11:15.898Z,59.78
2023-03-06T19:13:47.177Z,63.58
2023-03-06T19:16:22.398Z,64.19
2023-03-06T19:18:55.804Z,63.05
2023-03-06T19:21:27.786Z,63.33
2023-03-06T19:23:59.680Z,60.12
2023-03-06T19:26:30.541Z,58.74
2023-03-06T19:29:01.657Z,60.22
2023-03-06T19:31:32.653Z,63.64
2023-03-06T19:34:03.937Z,63.28
2023-03-06T19:36:35.065Z,60.39
2023-03-06T19:39:07.845Z,60.15
2023-03-06T19:41:38.787Z,62.99
2023-03-06T19:44:12.372Z,67.46
2023-03-06T19:46:44.880Z,64.87
2023-03-06T19:49:18.322Z,61.21
2023-03-06T19:51:49.177Z,58.52
2023-03-06T19:54:24.001Z,59.44
2023-03-06T19:56:56.355Z,64.26
2023-03-06T19:59:28.395Z,65.19
2023-03-06T20:02:03.310Z,62.51
2023-03-06T20:04:35.220Z,57.50
2023-03-06T20:07:06.367Z,60.21
2023-03-06T20:09:37.890Z,64.23
2023-03-06T20:12:08.933Z,65.48
2023-03-06T20:14:40.125Z,66.43
2023-03-06T20:17:10.800Z,65.01
2023-03-06T20:19:42.254Z,63.68
2023-03-06T20:22:12.975Z,57.03
2023-03-06T20:24:43.927Z,58.45
2023-03-06T20:27:14.648Z,62.17
2023-03-06T20:29:45.917Z,65.51
2023-03-06T20:32:16.661Z,62.85
2023-03-06T20:34:47.799Z,58.06
2023-03-06T20:37:18.521Z,58.97
2023-03-06T20:39:49.743Z,64.12
2023-03-06T20:42:20.379Z,66.80
2023-03-06T20:44:51.644Z,67.48
2023-03-06T20:47:22.564Z,65.41
2023-03-06T20:49:53.601Z,62.48
2023-03-06T20:52:24.233Z,59.21
2023-03-06T20:54:56.817Z,58.87
2023-03-06T20:57:28.107Z,60.92
2023-03-06T20:59:59.820Z,63.93
2023-03-06T21:02:30.654Z,62.19
2023-03-06T21:05:01.875Z,59.59
2023-03-06T21:07:32.832Z,62.18
2023-03-06T21:10:04.049Z,65.53
2023-03-06T21:12:35.157Z,66.12
2023-03-06T21:15:08.893Z,66.74
2023-03-06T21:17:39.654Z,65.21
2023-03-06T21:20:11.732Z,63.64
2023-03-06T21:22:42.381Z,62.81
2023-03-06T21:25:13.810Z,62.94
2023-03-06T21:27:44.749Z,62.92
2023-03-06T21:30:16.195Z,60.23
2023-03-06T21:32:47.712Z,55.31
2023-03-06T21:35:19.077Z,58.68
2023-03-06T21:37:51.177Z,62.84
2023-03-06T21:40:22.863Z,64.63
2023-03-06T21:42:53.853Z,62.25
2023-03-06T21:45:30.757Z,61.69
2023-03-06T21:48:02.145Z,58.75
2023-03-06T21:50:35.365Z,61.80
2023-03-06T21:53:06.213Z,65.09
2023-03-06T21:55:39.182Z,62.83
2023-03-06T21:58:10.441Z,61.33
2023-03-06T22:00:41.880Z,61.87
2023-03-06T22:03:12.618Z,59.53
2023-03-06T22:05:43.843Z,61.61
2023-03-06T22:08:14.711Z,64.85
2023-03-06T22:10:48.452Z,62.68
2023-03-06T22:13:19.758Z,60.15
2023-03-06T22:15:55.736Z,59.32
2023-03-06T22:18:26.961Z,61.91
2023-03-06T22:20:58.299Z,66.36
2023-03-06T22:23:30.118Z,67.04
2023-03-06T22:26:05.729Z,64.02
2023-03-06T22:28:38.695Z,63.40
2023-03-06T22:31:11.246Z,62.37
2023-03-06T22:33:42.340Z,63.18
2023-03-06T22:36:15.909Z,58.80
2023-03-06T22:38:47.452Z,58.86
2023-03-06T22:41:20.202Z,63.34
2023-03-06T22:43:50.935Z,65.86
2023-03-06T22:46:23.486Z,64.31
2023-03-06T22:48:57.051Z,63.52
2023-03-06T22:51:28.752Z,61.44
2023-03-06T22:53:59.474Z,58.91
2023-03-06T22:56:30.569Z,61.37
2023-03-06T22:59:01.507Z,66.59
2023-03-06T23:01:34.029Z,67.07
2023-03-06T23:04:08.555Z,65.99
2023-03-06T23:06:41.075Z,64.76
2023-03-06T23:09:14.769Z,63.36
2023-03-06T23:12:04.428Z,62.24
2023-03-06T23:14:53.955Z,60.01
2023-03-06T23:17:43.726Z,60.89
2023-03-06T23:20:33.646Z,63.69
2023-03-06T23:23:23.899Z,68.96
2023-03-06T23:25:59.345Z,66.20
2023-03-06T23:28:30.815Z,63.43
2023-03-06T23:31:01.548Z,61.77
2023-03-06T23:33:32.667Z,59.69
2023-03-06T23:36:04.680Z,60.35
2023-03-06T23:38:35.939Z,63.26
2023-03-06T23:41:08.142Z,67.39
2023-03-06T23:43:39.335Z,66.08
2023-03-06T23:46:10.461Z,63.10
2023-03-06T23:48:42.696Z,62.18
2023-03-06T23:51:15.125Z,61.63
2023-03-06T23:53:46.676Z,60.18
2023-03-06T23:56:17.355Z,59.64
2023-03-06T23:58:48.723Z,60.65
